Terminal Aerodrome Forecast
Issued by NWS

Current Version | Previous Version | Text Only | Print | Product List | Glossary On
Versions: 1 2 3 4 5 6 7 8 9 10 11 12 13 14 15 16 17 18 19 20 21 22 23 24 25 26 27 28 29 30 31
800 FTUS41 KOKX 230836 AAB TAFGON TAF AMD KGON 230836Z 2309/2406 VRB02KT 5SM BR SCT005 BKN100 TEMPO 2309/2312 2SM BR BKN005 BKN100 FM231200 18005KT P6SM SCT005 BKN100 FM231800 20010KT P6SM VCSH SCT025 BKN050 FM232200 21010G17KT P6SM VCTS SCT025CB BKN050 FM240500 21008KT 3SM SHRA VCTS BKN025CB=

USA.gov is the U.S. government's official web portal to all federal, state and local government web resources and services.